sensor_id;sensor_type;location;lat;lon;timestamp;P1;durP1;ratioP1;P2;durP2;ratioP2
57752;SDS011;43583;53.132;6.574;2022-08-19T00:00:00;4.18;;;2.00;;
57752;SDS011;43583;53.132;6.574;2022-08-19T00:02:26;2.33;;;2.13;;
57752;SDS011;43583;53.132;6.574;2022-08-19T00:04:51;1.88;;;1.10;;
57752;SDS011;43583;53.132;6.574;2022-08-19T00:07:20;3.65;;;1.58;;
57752;SDS011;43583;53.132;6.574;2022-08-19T00:09:46;3.28;;;1.67;;
57752;SDS011;43583;53.132;6.574;2022-08-19T00:12:11;3.35;;;1.63;;
57752;SDS011;43583;53.132;6.574;2022-08-19T00:14:37;3.63;;;1.90;;
57752;SDS011;43583;53.132;6.574;2022-08-19T00:17:07;2.40;;;1.55;;
57752;SDS011;43583;53.132;6.574;2022-08-19T00:19:34;2.50;;;1.70;;
57752;SDS011;43583;53.132;6.574;2022-08-19T00:22:00;4.25;;;2.40;;
57752;SDS011;43583;53.132;6.574;2022-08-19T00:24:27;3.80;;;2.45;;
57752;SDS011;43583;53.132;6.574;2022-08-19T00:26:53;7.00;;;3.28;;
57752;SDS011;43583;53.132;6.574;2022-08-19T00:29:21;3.17;;;2.55;;
57752;SDS011;43583;53.132;6.574;2022-08-19T00:31:48;5.28;;;3.63;;
57752;SDS011;43583;53.132;6.574;2022-08-19T00:34:17;4.05;;;2.88;;
57752;SDS011;43583;53.132;6.574;2022-08-19T00:36:43;4.22;;;3.05;;
57752;SDS011;43583;53.132;6.574;2022-08-19T00:39:09;3.13;;;2.30;;
57752;SDS011;43583;53.132;6.574;2022-08-19T00:41:36;5.05;;;2.92;;
57752;SDS011;43583;53.132;6.574;2022-08-19T00:44:07;4.72;;;2.20;;
57752;SDS011;43583;53.132;6.574;2022-08-19T00:46:42;3.67;;;2.22;;
57752;SDS011;43583;53.132;6.574;2022-08-19T00:49:24;3.50;;;2.78;;
57752;SDS011;43583;53.132;6.574;2022-08-19T00:51:59;2.83;;;2.28;;
57752;SDS011;43583;53.132;6.574;2022-08-19T00:54:27;3.03;;;1.92;;
57752;SDS011;43583;53.132;6.574;2022-08-19T00:56:53;3.38;;;2.42;;
57752;SDS011;43583;53.132;6.574;2022-08-19T00:59:19;6.95;;;2.05;;
57752;SDS011;43583;53.132;6.574;2022-08-19T01:01:45;3.15;;;2.05;;
57752;SDS011;43583;53.132;6.574;2022-08-19T01:04:12;3.72;;;1.80;;
57752;SDS011;43583;53.132;6.574;2022-08-19T01:06:38;3.65;;;2.38;;
57752;SDS011;43583;53.132;6.574;2022-08-19T01:09:06;5.78;;;1.65;;
57752;SDS011;43583;53.132;6.574;2022-08-19T01:11:33;3.08;;;1.45;;
57752;SDS011;43583;53.132;6.574;2022-08-19T01:14:03;1.58;;;0.95;;
57752;SDS011;43583;53.132;6.574;2022-08-19T01:16:30;2.20;;;0.93;;
57752;SDS011;43583;53.132;6.574;2022-08-19T01:18:58;2.20;;;1.40;;
57752;SDS011;43583;53.132;6.574;2022-08-19T01:23:53;3.33;;;0.95;;
57752;SDS011;43583;53.132;6.574;2022-08-19T01:26:20;3.13;;;1.52;;
57752;SDS011;43583;53.132;6.574;2022-08-19T01:28:48;3.42;;;2.28;;
57752;SDS011;43583;53.132;6.574;2022-08-19T01:31:17;5.50;;;2.95;;
57752;SDS011;43583;53.132;6.574;2022-08-19T01:33:46;6.13;;;3.35;;
57752;SDS011;43583;53.132;6.574;2022-08-19T01:36:14;10.55;;;3.10;;
57752;SDS011;43583;53.132;6.574;2022-08-19T01:38:47;5.88;;;3.63;;
57752;SDS011;43583;53.132;6.574;2022-08-19T01:41:13;5.80;;;4.03;;
57752;SDS011;43583;53.132;6.574;2022-08-19T01:43:39;5.72;;;4.15;;
57752;SDS011;43583;53.132;6.574;2022-08-19T01:46:05;5.78;;;3.85;;
57752;SDS011;43583;53.132;6.574;2022-08-19T01:48:38;6.80;;;3.85;;
57752;SDS011;43583;53.132;6.574;2022-08-19T01:51:06;3.05;;;2.67;;
57752;SDS011;43583;53.132;6.574;2022-08-19T01:53:33;3.75;;;2.28;;
57752;SDS011;43583;53.132;6.574;2022-08-19T01:55:59;4.43;;;3.05;;
57752;SDS011;43583;53.132;6.574;2022-08-19T01:58:27;7.13;;;3.45;;
57752;SDS011;43583;53.132;6.574;2022-08-19T02:00:57;2.58;;;2.22;;
57752;SDS011;43583;53.132;6.574;2022-08-19T02:03:23;3.30;;;2.20;;
57752;SDS011;43583;53.132;6.574;2022-08-19T02:05:53;2.88;;;2.10;;
57752;SDS011;43583;53.132;6.574;2022-08-19T02:08:24;3.63;;;2.22;;
57752;SDS011;43583;53.132;6.574;2022-08-19T02:10:54;3.28;;;2.30;;
57752;SDS011;43583;53.132;6.574;2022-08-19T02:13:20;2.85;;;1.75;;
57752;SDS011;43583;53.132;6.574;2022-08-19T02:15:46;16.48;;;2.85;;
57752;SDS011;43583;53.132;6.574;2022-08-19T02:18:11;7.07;;;3.47;;
57752;SDS011;43583;53.132;6.574;2022-08-19T02:20:37;4.43;;;2.53;;
57752;SDS011;43583;53.132;6.574;2022-08-19T02:23:04;5.72;;;2.78;;
57752;SDS011;43583;53.132;6.574;2022-08-19T02:25:30;4.07;;;2.97;;
57752;SDS011;43583;53.132;6.574;2022-08-19T02:27:56;5.40;;;2.53;;
57752;SDS011;43583;53.132;6.574;2022-08-19T02:30:22;4.40;;;2.45;;
57752;SDS011;43583;53.132;6.574;2022-08-19T02:32:49;2.70;;;2.00;;
57752;SDS011;43583;53.132;6.574;2022-08-19T02:35:15;5.72;;;2.65;;
57752;SDS011;43583;53.132;6.574;2022-08-19T02:37:41;4.10;;;2.13;;
57752;SDS011;43583;53.132;6.574;2022-08-19T02:40:27;4.03;;;2.70;;
57752;SDS011;43583;53.132;6.574;2022-08-19T02:42:54;3.53;;;2.55;;
57752;SDS011;43583;53.132;6.574;2022-08-19T02:45:20;4.30;;;2.78;;
57752;SDS011;43583;53.132;6.574;2022-08-19T02:47:45;5.20;;;2.13;;
57752;SDS011;43583;53.132;6.574;2022-08-19T02:50:11;3.35;;;2.42;;
57752;SDS011;43583;53.132;6.574;2022-08-19T02:52:37;3.55;;;2.28;;
57752;SDS011;43583;53.132;6.574;2022-08-19T02:55:03;4.10;;;1.55;;
57752;SDS011;43583;53.132;6.574;2022-08-19T02:57:30;4.03;;;2.00;;
57752;SDS011;43583;53.132;6.574;2022-08-19T02:59:59;4.47;;;2.97;;
57752;SDS011;43583;53.132;6.574;2022-08-19T03:02:26;3.83;;;2.47;;
57752;SDS011;43583;53.132;6.574;2022-08-19T03:04:52;3.75;;;2.28;;
57752;SDS011;43583;53.132;6.574;2022-08-19T03:07:18;6.72;;;2.80;;
57752;SDS011;43583;53.132;6.574;2022-08-19T03:09:43;4.57;;;2.35;;
57752;SDS011;43583;53.132;6.574;2022-08-19T03:12:09;10.25;;;2.42;;
57752;SDS011;43583;53.132;6.574;2022-08-19T03:14:35;2.63;;;1.73;;
57752;SDS011;43583;53.132;6.574;2022-08-19T03:17:02;7.00;;;3.10;;
57752;SDS011;43583;53.132;6.574;2022-08-19T03:19:29;5.05;;;3.13;;
57752;SDS011;43583;53.132;6.574;2022-08-19T03:21:56;5.88;;;2.72;;
57752;SDS011;43583;53.132;6.574;2022-08-19T03:24:22;4.32;;;1.88;;
57752;SDS011;43583;53.132;6.574;2022-08-19T03:26:51;0.90;;;0.30;;
57752;SDS011;43583;53.132;6.574;2022-08-19T03:29:19;5.43;;;2.72;;
57752;SDS011;43583;53.132;6.574;2022-08-19T03:31:45;3.63;;;2.58;;
57752;SDS011;43583;53.132;6.574;2022-08-19T03:34:12;8.45;;;2.67;;
57752;SDS011;43583;53.132;6.574;2022-08-19T03:36:39;4.57;;;2.47;;
57752;SDS011;43583;53.132;6.574;2022-08-19T03:39:05;5.63;;;2.58;;
57752;SDS011;43583;53.132;6.574;2022-08-19T03:41:31;4.53;;;2.95;;
57752;SDS011;43583;53.132;6.574;2022-08-19T03:44:01;6.63;;;3.13;;
57752;SDS011;43583;53.132;6.574;2022-08-19T03:46:30;6.43;;;4.07;;
57752;SDS011;43583;53.132;6.574;2022-08-19T03:48:58;10.30;;;5.22;;
57752;SDS011;43583;53.132;6.574;2022-08-19T03:53:53;9.88;;;5.40;;
57752;SDS011;43583;53.132;6.574;2022-08-19T03:56:20;6.07;;;4.03;;
57752;SDS011;43583;53.132;6.574;2022-08-19T03:58:47;6.75;;;4.30;;
57752;SDS011;43583;53.132;6.574;2022-08-19T04:01:17;4.57;;;3.10;;
57752;SDS011;43583;53.132;6.574;2022-08-19T04:03:45;6.10;;;3.83;;
57752;SDS011;43583;53.132;6.574;2022-08-19T04:06:16;6.72;;;3.40;;
57752;SDS011;43583;53.132;6.574;2022-08-19T04:08:46;6.18;;;3.45;;
57752;SDS011;43583;53.132;6.574;2022-08-19T04:11:14;5.45;;;3.17;;
57752;SDS011;43583;53.132;6.574;2022-08-19T04:13:41;168.25;;;11.00;;
57752;SDS011;43583;53.132;6.574;2022-08-19T04:16:10;31.90;;;5.93;;
57752;SDS011;43583;53.132;6.574;2022-08-19T04:18:37;9.30;;;4.25;;
57752;SDS011;43583;53.132;6.574;2022-08-19T04:21:03;7.28;;;3.65;;
57752;SDS011;43583;53.132;6.574;2022-08-19T04:23:30;9.85;;;4.25;;
57752;SDS011;43583;53.132;6.574;2022-08-19T04:25:56;6.88;;;3.38;;
57752;SDS011;43583;53.132;6.574;2022-08-19T04:28:22;9.52;;;4.03;;
57752;SDS011;43583;53.132;6.574;2022-08-19T04:30:51;13.77;;;4.32;;
57752;SDS011;43583;53.132;6.574;2022-08-19T04:33:19;8.38;;;3.58;;
57752;SDS011;43583;53.132;6.574;2022-08-19T04:35:49;7.40;;;4.50;;
57752;SDS011;43583;53.132;6.574;2022-08-19T04:38:17;7.50;;;4.22;;
57752;SDS011;43583;53.132;6.574;2022-08-19T04:40:48;8.65;;;5.50;;
57752;SDS011;43583;53.132;6.574;2022-08-19T04:43:34;8.38;;;4.60;;
57752;SDS011;43583;53.132;6.574;2022-08-19T04:46:04;14.55;;;5.85;;
57752;SDS011;43583;53.132;6.574;2022-08-19T04:48:31;10.73;;;4.65;;
57752;SDS011;43583;53.132;6.574;2022-08-19T04:50:57;8.73;;;4.55;;
57752;SDS011;43583;53.132;6.574;2022-08-19T04:53:24;7.72;;;3.88;;
57752;SDS011;43583;53.132;6.574;2022-08-19T04:55:58;9.38;;;3.70;;
57752;SDS011;43583;53.132;6.574;2022-08-19T04:58:26;8.50;;;4.35;;
57752;SDS011;43583;53.132;6.574;2022-08-19T05:00:52;7.90;;;3.58;;
57752;SDS011;43583;53.132;6.574;2022-08-19T05:03:19;4.72;;;3.45;;
57752;SDS011;43583;53.132;6.574;2022-08-19T05:05:46;7.20;;;3.67;;
57752;SDS011;43583;53.132;6.574;2022-08-19T05:08:16;5.95;;;2.83;;
57752;SDS011;43583;53.132;6.574;2022-08-19T05:10:45;5.47;;;3.42;;
57752;SDS011;43583;53.132;6.574;2022-08-19T05:13:15;7.70;;;3.15;;
57752;SDS011;43583;53.132;6.574;2022-08-19T05:15:42;7.03;;;3.70;;
57752;SDS011;43583;53.132;6.574;2022-08-19T05:18:08;16.02;;;5.82;;
57752;SDS011;43583;53.132;6.574;2022-08-19T05:20:53;12.07;;;4.40;;
57752;SDS011;43583;53.132;6.574;2022-08-19T05:23:37;5.80;;;2.10;;
57752;SDS011;43583;53.132;6.574;2022-08-19T05:26:03;5.40;;;1.05;;
57752;SDS011;43583;53.132;6.574;2022-08-19T05:28:29;10.63;;;1.00;;
57752;SDS011;43583;53.132;6.574;2022-08-19T05:30:55;4.00;;;0.85;;
57752;SDS011;43583;53.132;6.574;2022-08-19T05:33:21;1.63;;;1.00;;
57752;SDS011;43583;53.132;6.574;2022-08-19T05:35:47;2.88;;;1.85;;
57752;SDS011;43583;53.132;6.574;2022-08-19T05:38:14;4.50;;;3.70;;
57752;SDS011;43583;53.132;6.574;2022-08-19T05:40:41;4.82;;;3.22;;
57752;SDS011;43583;53.132;6.574;2022-08-19T05:43:14;3.22;;;2.80;;
57752;SDS011;43583;53.132;6.574;2022-08-19T05:45:43;4.35;;;3.47;;
57752;SDS011;43583;53.132;6.574;2022-08-19T05:48:09;3.85;;;3.40;;
57752;SDS011;43583;53.132;6.574;2022-08-19T05:50:38;4.10;;;3.33;;
57752;SDS011;43583;53.132;6.574;2022-08-19T05:53:05;4.70;;;3.20;;
57752;SDS011;43583;53.132;6.574;2022-08-19T05:55:32;3.30;;;2.88;;
57752;SDS011;43583;53.132;6.574;2022-08-19T05:57:57;3.30;;;3.00;;
57752;SDS011;43583;53.132;6.574;2022-08-19T06:00:23;4.22;;;3.67;;
57752;SDS011;43583;53.132;6.574;2022-08-19T06:02:49;3.95;;;3.65;;
57752;SDS011;43583;53.132;6.574;2022-08-19T06:05:15;3.67;;;3.33;;
57752;SDS011;43583;53.132;6.574;2022-08-19T06:07:41;3.90;;;3.60;;
57752;SDS011;43583;53.132;6.574;2022-08-19T06:10:08;3.45;;;3.13;;
57752;SDS011;43583;53.132;6.574;2022-08-19T06:12:35;3.65;;;3.28;;
57752;SDS011;43583;53.132;6.574;2022-08-19T06:15:05;4.25;;;2.90;;
57752;SDS011;43583;53.132;6.574;2022-08-19T06:17:35;4.07;;;3.08;;
57752;SDS011;43583;53.132;6.574;2022-08-19T06:20:03;3.17;;;2.85;;
57752;SDS011;43583;53.132;6.574;2022-08-19T06:22:38;3.90;;;3.45;;
57752;SDS011;43583;53.132;6.574;2022-08-19T06:25:04;3.00;;;2.80;;
57752;SDS011;43583;53.132;6.574;2022-08-19T06:27:30;3.67;;;2.60;;
57752;SDS011;43583;53.132;6.574;2022-08-19T06:29:57;2.53;;;2.33;;
57752;SDS011;43583;53.132;6.574;2022-08-19T06:32:23;3.30;;;3.00;;
57752;SDS011;43583;53.132;6.574;2022-08-19T06:34:49;3.83;;;3.00;;
57752;SDS011;43583;53.132;6.574;2022-08-19T06:37:14;2.70;;;2.50;;
57752;SDS011;43583;53.132;6.574;2022-08-19T06:39:41;3.55;;;2.58;;
57752;SDS011;43583;53.132;6.574;2022-08-19T06:42:08;4.90;;;3.65;;
57752;SDS011;43583;53.132;6.574;2022-08-19T06:44:38;3.40;;;2.97;;
57752;SDS011;43583;53.132;6.574;2022-08-19T06:47:07;3.42;;;3.13;;
57752;SDS011;43583;53.132;6.574;2022-08-19T06:49:34;3.35;;;2.95;;
57752;SDS011;43583;53.132;6.574;2022-08-19T06:52:00;3.58;;;2.55;;
57752;SDS011;43583;53.132;6.574;2022-08-19T06:54:26;2.25;;;2.03;;
57752;SDS011;43583;53.132;6.574;2022-08-19T06:56:54;2.55;;;2.35;;
57752;SDS011;43583;53.132;6.574;2022-08-19T06:59:22;2.60;;;1.95;;
57752;SDS011;43583;53.132;6.574;2022-08-19T07:01:52;4.43;;;2.20;;
57752;SDS011;43583;53.132;6.574;2022-08-19T07:04:20;3.33;;;1.77;;
57752;SDS011;43583;53.132;6.574;2022-08-19T07:07:01;3.03;;;1.75;;
57752;SDS011;43583;53.132;6.574;2022-08-19T07:09:33;1.67;;;1.55;;
57752;SDS011;43583;53.132;6.574;2022-08-19T07:12:02;2.28;;;1.73;;
57752;SDS011;43583;53.132;6.574;2022-08-19T07:14:28;2.38;;;1.65;;
57752;SDS011;43583;53.132;6.574;2022-08-19T07:16:54;2.17;;;1.75;;
57752;SDS011;43583;53.132;6.574;2022-08-19T07:19:22;2.72;;;2.28;;
57752;SDS011;43583;53.132;6.574;2022-08-19T07:21:51;2.92;;;1.63;;
57752;SDS011;43583;53.132;6.574;2022-08-19T07:24:18;2.28;;;1.55;;
57752;SDS011;43583;53.132;6.574;2022-08-19T07:26:45;2.95;;;1.60;;
57752;SDS011;43583;53.132;6.574;2022-08-19T07:29:11;3.08;;;1.90;;
57752;SDS011;43583;53.132;6.574;2022-08-19T07:31:37;2.10;;;1.90;;
57752;SDS011;43583;53.132;6.574;2022-08-19T07:34:04;1.80;;;1.70;;
57752;SDS011;43583;53.132;6.574;2022-08-19T07:36:32;1.77;;;1.10;;
57752;SDS011;43583;53.132;6.574;2022-08-19T07:39:00;1.40;;;1.30;;
57752;SDS011;43583;53.132;6.574;2022-08-19T07:41:29;2.85;;;2.00;;
57752;SDS011;43583;53.132;6.574;2022-08-19T07:43:57;2.72;;;1.65;;
57752;SDS011;43583;53.132;6.574;2022-08-19T07:46:24;4.85;;;1.67;;
57752;SDS011;43583;53.132;6.574;2022-08-19T07:48:49;2.55;;;2.00;;
57752;SDS011;43583;53.132;6.574;2022-08-19T07:51:18;1.70;;;1.48;;
57752;SDS011;43583;53.132;6.574;2022-08-19T07:53:46;2.97;;;1.52;;
57752;SDS011;43583;53.132;6.574;2022-08-19T07:56:13;2.58;;;1.20;;
57752;SDS011;43583;53.132;6.574;2022-08-19T07:58:40;1.48;;;1.38;;
57752;SDS011;43583;53.132;6.574;2022-08-19T08:01:08;1.88;;;1.30;;
57752;SDS011;43583;53.132;6.574;2022-08-19T08:03:36;1.50;;;1.20;;
57752;SDS011;43583;53.132;6.574;2022-08-19T08:06:21;3.05;;;1.90;;
57752;SDS011;43583;53.132;6.574;2022-08-19T08:09:06;2.70;;;2.05;;
57752;SDS011;43583;53.132;6.574;2022-08-19T08:11:46;3.63;;;1.88;;
57752;SDS011;43583;53.132;6.574;2022-08-19T08:14:13;2.63;;;1.27;;
57752;SDS011;43583;53.132;6.574;2022-08-19T08:16:41;1.85;;;1.40;;
57752;SDS011;43583;53.132;6.574;2022-08-19T08:19:09;1.65;;;1.42;;
57752;SDS011;43583;53.132;6.574;2022-08-19T08:21:35;1.88;;;1.67;;
57752;SDS011;43583;53.132;6.574;2022-08-19T08:24:00;2.85;;;1.88;;
57752;SDS011;43583;53.132;6.574;2022-08-19T08:26:26;2.90;;;1.63;;
57752;SDS011;43583;53.132;6.574;2022-08-19T08:28:52;2.08;;;1.70;;
57752;SDS011;43583;53.132;6.574;2022-08-19T08:31:18;2.88;;;1.70;;
57752;SDS011;43583;53.132;6.574;2022-08-19T08:33:44;3.30;;;1.58;;
57752;SDS011;43583;53.132;6.574;2022-08-19T08:36:11;2.53;;;1.85;;
57752;SDS011;43583;53.132;6.574;2022-08-19T08:38:41;1.90;;;1.60;;
57752;SDS011;43583;53.132;6.574;2022-08-19T08:41:18;2.08;;;1.33;;
57752;SDS011;43583;53.132;6.574;2022-08-19T08:43:52;2.38;;;2.17;;
57752;SDS011;43583;53.132;6.574;2022-08-19T08:46:28;1.95;;;1.73;;
57752;SDS011;43583;53.132;6.574;2022-08-19T08:49:11;2.05;;;1.77;;
57752;SDS011;43583;53.132;6.574;2022-08-19T08:52:02;2.50;;;1.95;;
57752;SDS011;43583;53.132;6.574;2022-08-19T08:54:39;1.90;;;1.80;;
57752;SDS011;43583;53.132;6.574;2022-08-19T08:57:10;2.83;;;1.75;;
57752;SDS011;43583;53.132;6.574;2022-08-19T08:59:45;2.72;;;2.10;;
57752;SDS011;43583;53.132;6.574;2022-08-19T09:02:15;3.13;;;2.30;;
57752;SDS011;43583;53.132;6.574;2022-08-19T09:04:41;2.88;;;1.23;;
57752;SDS011;43583;53.132;6.574;2022-08-19T09:07:20;2.88;;;2.42;;
57752;SDS011;43583;53.132;6.574;2022-08-19T09:10:43;2.40;;;2.30;;
57752;SDS011;43583;53.132;6.574;2022-08-19T09:12:52;4.60;;;2.85;;
57752;SDS011;43583;53.132;6.574;2022-08-19T09:15:42;2.70;;;2.50;;
57752;SDS011;43583;53.132;6.574;2022-08-19T09:18:11;2.97;;;2.78;;
57752;SDS011;43583;53.132;6.574;2022-08-19T09:20:36;4.35;;;3.55;;
57752;SDS011;43583;53.132;6.574;2022-08-19T09:23:02;3.30;;;3.03;;
57752;SDS011;43583;53.132;6.574;2022-08-19T09:25:29;4.45;;;4.05;;
57752;SDS011;43583;53.132;6.574;2022-08-19T09:27:57;3.80;;;3.50;;
57752;SDS011;43583;53.132;6.574;2022-08-19T09:30:28;4.85;;;4.43;;
57752;SDS011;43583;53.132;6.574;2022-08-19T09:32:55;4.65;;;3.88;;
57752;SDS011;43583;53.132;6.574;2022-08-19T09:35:22;3.95;;;3.65;;
57752;SDS011;43583;53.132;6.574;2022-08-19T09:37:50;4.30;;;3.47;;
57752;SDS011;43583;53.132;6.574;2022-08-19T09:40:16;4.38;;;3.83;;
57752;SDS011;43583;53.132;6.574;2022-08-19T09:42:43;4.43;;;3.50;;
57752;SDS011;43583;53.132;6.574;2022-08-19T09:45:11;4.53;;;4.13;;
57752;SDS011;43583;53.132;6.574;2022-08-19T09:47:37;3.17;;;2.90;;
57752;SDS011;43583;53.132;6.574;2022-08-19T09:50:03;4.90;;;3.10;;
57752;SDS011;43583;53.132;6.574;2022-08-19T09:52:31;3.65;;;3.28;;
57752;SDS011;43583;53.132;6.574;2022-08-19T09:54:56;4.05;;;3.55;;
57752;SDS011;43583;53.132;6.574;2022-08-19T09:57:22;5.63;;;3.85;;
57752;SDS011;43583;53.132;6.574;2022-08-19T09:59:48;4.10;;;3.80;;
57752;SDS011;43583;53.132;6.574;2022-08-19T10:02:13;3.92;;;3.03;;
57752;SDS011;43583;53.132;6.574;2022-08-19T10:04:39;4.40;;;4.00;;
57752;SDS011;43583;53.132;6.574;2022-08-19T10:07:23;4.13;;;2.83;;
57752;SDS011;43583;53.132;6.574;2022-08-19T10:09:49;4.00;;;3.38;;
57752;SDS011;43583;53.132;6.574;2022-08-19T10:12:15;4.05;;;2.80;;
57752;SDS011;43583;53.132;6.574;2022-08-19T10:14:41;3.58;;;3.28;;
57752;SDS011;43583;53.132;6.574;2022-08-19T10:17:07;3.97;;;3.58;;
57752;SDS011;43583;53.132;6.574;2022-08-19T10:19:32;5.72;;;4.35;;
57752;SDS011;43583;53.132;6.574;2022-08-19T10:22:04;4.32;;;3.85;;
57752;SDS011;43583;53.132;6.574;2022-08-19T10:24:32;3.45;;;3.15;;
57752;SDS011;43583;53.132;6.574;2022-08-19T10:26:59;4.50;;;3.95;;
57752;SDS011;43583;53.132;6.574;2022-08-19T10:29:28;5.15;;;4.68;;
57752;SDS011;43583;53.132;6.574;2022-08-19T10:31:54;3.70;;;3.40;;
57752;SDS011;43583;53.132;6.574;2022-08-19T10:34:21;3.67;;;3.20;;
57752;SDS011;43583;53.132;6.574;2022-08-19T10:36:47;3.70;;;3.22;;
57752;SDS011;43583;53.132;6.574;2022-08-19T10:39:13;6.10;;;4.05;;
57752;SDS011;43583;53.132;6.574;2022-08-19T10:41:39;6.97;;;4.03;;
57752;SDS011;43583;53.132;6.574;2022-08-19T10:44:07;5.25;;;4.03;;
57752;SDS011;43583;53.132;6.574;2022-08-19T10:46:36;5.60;;;4.38;;
57752;SDS011;43583;53.132;6.574;2022-08-19T10:49:07;4.15;;;3.33;;
57752;SDS011;43583;53.132;6.574;2022-08-19T10:51:33;3.58;;;3.28;;
57752;SDS011;43583;53.132;6.574;2022-08-19T10:54:18;4.05;;;3.75;;
57752;SDS011;43583;53.132;6.574;2022-08-19T10:56:44;13.05;;;7.40;;
57752;SDS011;43583;53.132;6.574;2022-08-19T10:59:19;5.50;;;5.00;;
57752;SDS011;43583;53.132;6.574;2022-08-19T11:01:52;5.65;;;5.13;;
57752;SDS011;43583;53.132;6.574;2022-08-19T11:04:19;6.80;;;4.25;;
57752;SDS011;43583;53.132;6.574;2022-08-19T11:06:48;4.45;;;4.03;;
57752;SDS011;43583;53.132;6.574;2022-08-19T11:09:14;5.70;;;5.20;;
57752;SDS011;43583;53.132;6.574;2022-08-19T11:11:41;5.43;;;4.78;;
57752;SDS011;43583;53.132;6.574;2022-08-19T11:14:09;3.83;;;3.47;;
57752;SDS011;43583;53.132;6.574;2022-08-19T11:16:36;4.60;;;4.20;;
57752;SDS011;43583;53.132;6.574;2022-08-19T11:19:04;4.10;;;3.70;;
57752;SDS011;43583;53.132;6.574;2022-08-19T11:21:33;5.07;;;3.58;;
57752;SDS011;43583;53.132;6.574;2022-08-19T11:24:02;5.15;;;4.15;;
57752;SDS011;43583;53.132;6.574;2022-08-19T11:26:31;4.50;;;4.10;;
57752;SDS011;43583;53.132;6.574;2022-08-19T11:28:57;5.55;;;4.63;;
57752;SDS011;43583;53.132;6.574;2022-08-19T11:31:25;7.45;;;5.75;;
57752;SDS011;43583;53.132;6.574;2022-08-19T11:33:53;6.47;;;5.88;;
57752;SDS011;43583;53.132;6.574;2022-08-19T11:36:19;5.53;;;4.25;;
57752;SDS011;43583;53.132;6.574;2022-08-19T11:38:46;5.95;;;5.45;;
57752;SDS011;43583;53.132;6.574;2022-08-19T11:41:13;5.28;;;4.40;;
57752;SDS011;43583;53.132;6.574;2022-08-19T11:43:40;4.38;;;3.97;;
57752;SDS011;43583;53.132;6.574;2022-08-19T11:46:07;5.65;;;5.13;;
57752;SDS011;43583;53.132;6.574;2022-08-19T11:48:35;4.00;;;3.60;;
57752;SDS011;43583;53.132;6.574;2022-08-19T11:51:06;5.70;;;5.20;;
57752;SDS011;43583;53.132;6.574;2022-08-19T11:53:33;7.00;;;6.35;;
57752;SDS011;43583;53.132;6.574;2022-08-19T11:56:00;6.32;;;4.85;;
57752;SDS011;43583;53.132;6.574;2022-08-19T11:58:26;5.72;;;5.20;;
57752;SDS011;43583;53.132;6.574;2022-08-19T12:00:51;5.68;;;4.75;;
57752;SDS011;43583;53.132;6.574;2022-08-19T12:03:18;5.25;;;4.45;;
57752;SDS011;43583;53.132;6.574;2022-08-19T12:05:44;4.95;;;3.63;;
57752;SDS011;43583;53.132;6.574;2022-08-19T12:08:10;5.90;;;4.15;;
57752;SDS011;43583;53.132;6.574;2022-08-19T12:10:37;3.80;;;3.42;;
57752;SDS011;43583;53.132;6.574;2022-08-19T12:13:04;6.72;;;3.95;;
57752;SDS011;43583;53.132;6.574;2022-08-19T12:15:34;5.18;;;4.15;;
57752;SDS011;43583;53.132;6.574;2022-08-19T12:18:05;4.40;;;3.95;;
57752;SDS011;43583;53.132;6.574;2022-08-19T12:20:33;5.43;;;3.03;;
57752;SDS011;43583;53.132;6.574;2022-08-19T12:23:00;4.00;;;3.22;;
57752;SDS011;43583;53.132;6.574;2022-08-19T12:25:26;3.75;;;3.42;;
57752;SDS011;43583;53.132;6.574;2022-08-19T12:27:52;5.50;;;3.05;;
57752;SDS011;43583;53.132;6.574;2022-08-19T12:30:17;3.90;;;3.05;;
57752;SDS011;43583;53.132;6.574;2022-08-19T12:32:43;5.00;;;3.67;;
57752;SDS011;43583;53.132;6.574;2022-08-19T12:35:09;3.78;;;3.17;;
57752;SDS011;43583;53.132;6.574;2022-08-19T12:37:35;3.45;;;3.13;;
57752;SDS011;43583;53.132;6.574;2022-08-19T12:40:01;5.90;;;4.30;;
57752;SDS011;43583;53.132;6.574;2022-08-19T12:42:27;5.18;;;3.95;;
57752;SDS011;43583;53.132;6.574;2022-08-19T12:44:54;3.20;;;2.92;;
57752;SDS011;43583;53.132;6.574;2022-08-19T12:47:20;3.40;;;3.10;;
57752;SDS011;43583;53.132;6.574;2022-08-19T12:49:46;6.47;;;3.40;;
57752;SDS011;43583;53.132;6.574;2022-08-19T12:52:12;4.00;;;3.33;;
57752;SDS011;43583;53.132;6.574;2022-08-19T12:54:40;3.35;;;3.00;;
57752;SDS011;43583;53.132;6.574;2022-08-19T12:57:07;3.88;;;3.30;;
57752;SDS011;43583;53.132;6.574;2022-08-19T12:59:34;3.58;;;2.60;;
57752;SDS011;43583;53.132;6.574;2022-08-19T13:02:01;7.68;;;3.03;;
57752;SDS011;43583;53.132;6.574;2022-08-19T13:04:34;3.33;;;3.03;;
57752;SDS011;43583;53.132;6.574;2022-08-19T13:07:02;5.03;;;3.35;;
57752;SDS011;43583;53.132;6.574;2022-08-19T13:09:28;5.93;;;4.35;;
57752;SDS011;43583;53.132;6.574;2022-08-19T13:11:54;4.25;;;3.72;;
57752;SDS011;43583;53.132;6.574;2022-08-19T13:14:21;2.97;;;2.67;;
57752;SDS011;43583;53.132;6.574;2022-08-19T13:16:47;3.60;;;2.72;;
57752;SDS011;43583;53.132;6.574;2022-08-19T13:19:12;4.78;;;2.80;;
57752;SDS011;43583;53.132;6.574;2022-08-19T13:21:38;3.85;;;2.67;;
57752;SDS011;43583;53.132;6.574;2022-08-19T13:24:03;4.20;;;3.10;;
57752;SDS011;43583;53.132;6.574;2022-08-19T13:26:29;4.03;;;3.65;;
57752;SDS011;43583;53.132;6.574;2022-08-19T13:28:55;6.97;;;4.45;;
57752;SDS011;43583;53.132;6.574;2022-08-19T13:31:40;6.63;;;4.30;;
57752;SDS011;43583;53.132;6.574;2022-08-19T13:34:29;7.10;;;5.72;;
57752;SDS011;43583;53.132;6.574;2022-08-19T13:36:58;8.77;;;5.72;;
57752;SDS011;43583;53.132;6.574;2022-08-19T13:39:24;6.55;;;5.32;;
57752;SDS011;43583;53.132;6.574;2022-08-19T13:41:50;6.65;;;5.32;;
57752;SDS011;43583;53.132;6.574;2022-08-19T13:44:16;7.72;;;6.28;;
57752;SDS011;43583;53.132;6.574;2022-08-19T13:46:45;6.57;;;4.15;;
57752;SDS011;43583;53.132;6.574;2022-08-19T13:49:13;8.35;;;6.70;;
57752;SDS011;43583;53.132;6.574;2022-08-19T13:51:40;9.13;;;6.10;;
57752;SDS011;43583;53.132;6.574;2022-08-19T13:54:07;9.40;;;7.38;;
57752;SDS011;43583;53.132;6.574;2022-08-19T13:56:34;10.70;;;6.45;;
57752;SDS011;43583;53.132;6.574;2022-08-19T13:59:00;7.05;;;5.70;;
57752;SDS011;43583;53.132;6.574;2022-08-19T14:01:26;9.27;;;6.63;;
57752;SDS011;43583;53.132;6.574;2022-08-19T14:03:52;8.07;;;5.50;;
57752;SDS011;43583;53.132;6.574;2022-08-19T14:06:18;6.43;;;4.53;;
57752;SDS011;43583;53.132;6.574;2022-08-19T14:08:44;6.25;;;4.93;;
57752;SDS011;43583;53.132;6.574;2022-08-19T14:11:10;8.40;;;5.55;;
57752;SDS011;43583;53.132;6.574;2022-08-19T14:13:36;6.80;;;4.95;;
57752;SDS011;43583;53.132;6.574;2022-08-19T14:16:05;5.53;;;4.60;;
57752;SDS011;43583;53.132;6.574;2022-08-19T14:18:35;8.97;;;5.10;;
57752;SDS011;43583;53.132;6.574;2022-08-19T14:21:01;8.10;;;5.10;;
57752;SDS011;43583;53.132;6.574;2022-08-19T14:23:27;5.07;;;3.58;;
57752;SDS011;43583;53.132;6.574;2022-08-19T14:25:53;5.85;;;4.88;;
57752;SDS011;43583;53.132;6.574;2022-08-19T14:28:35;8.88;;;5.20;;
57752;SDS011;43583;53.132;6.574;2022-08-19T14:31:00;7.35;;;4.32;;
57752;SDS011;43583;53.132;6.574;2022-08-19T14:33:26;7.00;;;5.30;;
57752;SDS011;43583;53.132;6.574;2022-08-19T14:35:51;7.13;;;5.43;;
57752;SDS011;43583;53.132;6.574;2022-08-19T14:38:17;6.35;;;4.60;;
57752;SDS011;43583;53.132;6.574;2022-08-19T14:40:44;8.60;;;6.57;;
57752;SDS011;43583;53.132;6.574;2022-08-19T14:43:10;6.35;;;4.30;;
57752;SDS011;43583;53.132;6.574;2022-08-19T14:45:38;9.93;;;5.80;;
57752;SDS011;43583;53.132;6.574;2022-08-19T14:48:05;7.97;;;5.60;;
57752;SDS011;43583;53.132;6.574;2022-08-19T14:50:32;8.90;;;5.63;;
57752;SDS011;43583;53.132;6.574;2022-08-19T14:53:02;12.00;;;7.18;;
57752;SDS011;43583;53.132;6.574;2022-08-19T14:55:29;10.93;;;6.70;;
57752;SDS011;43583;53.132;6.574;2022-08-19T14:57:56;13.07;;;6.72;;